sensor_id;sensor_type;location;lat;lon;timestamp;temperature;humidity
12481;DHT22;6305;48.398;11.762;2022-10-31T00:01:11;7.80;99.90
12481;DHT22;6305;48.398;11.762;2022-10-31T00:03:39;7.90;99.90
12481;DHT22;6305;48.398;11.762;2022-10-31T00:06:07;7.90;99.90
12481;DHT22;6305;48.398;11.762;2022-10-31T00:08:33;7.90;99.90
12481;DHT22;6305;48.398;11.762;2022-10-31T00:11:00;8.00;99.90
12481;DHT22;6305;48.398;11.762;2022-10-31T00:13:27;7.90;99.90
12481;DHT22;6305;48.398;11.762;2022-10-31T00:15:54;7.90;99.90
12481;DHT22;6305;48.398;11.762;2022-10-31T00:18:21;7.90;99.90
12481;DHT22;6305;48.398;11.762;2022-10-31T00:20:49;7.80;99.90
12481;DHT22;6305;48.398;11.762;2022-10-31T00:23:24;7.80;99.90
12481;DHT22;6305;48.398;11.762;2022-10-31T00:25:51;7.70;99.90
12481;DHT22;6305;48.398;11.762;2022-10-31T00:28:17;7.70;99.90
12481;DHT22;6305;48.398;11.762;2022-10-31T00:30:44;7.70;99.90
12481;DHT22;6305;48.398;11.762;2022-10-31T00:33:11;7.70;99.90
12481;DHT22;6305;48.398;11.762;2022-10-31T00:35:37;7.60;99.90
12481;DHT22;6305;48.398;11.762;2022-10-31T00:38:05;7.60;99.90
12481;DHT22;6305;48.398;11.762;2022-10-31T00:40:32;7.70;99.90
12481;DHT22;6305;48.398;11.762;2022-10-31T00:42:59;7.60;99.90
12481;DHT22;6305;48.398;11.762;2022-10-31T00:45:26;7.70;99.90
12481;DHT22;6305;48.398;11.762;2022-10-31T00:47:52;7.70;99.90
12481;DHT22;6305;48.398;11.762;2022-10-31T00:50:19;7.70;99.90
12481;DHT22;6305;48.398;11.762;2022-10-31T00:52:46;7.70;99.90
12481;DHT22;6305;48.398;11.762;2022-10-31T00:55:14;7.70;99.90
12481;DHT22;6305;48.398;11.762;2022-10-31T00:57:41;7.60;99.90
12481;DHT22;6305;48.398;11.762;2022-10-31T01:00:09;7.60;99.90
12481;DHT22;6305;48.398;11.762;2022-10-31T01:02:36;7.40;99.90
12481;DHT22;6305;48.398;11.762;2022-10-31T01:05:03;7.40;99.90
12481;DHT22;6305;48.398;11.762;2022-10-31T01:07:30;7.40;99.90
12481;DHT22;6305;48.398;11.762;2022-10-31T01:09:56;7.50;99.90
12481;DHT22;6305;48.398;11.762;2022-10-31T01:12:24;7.50;99.90
12481;DHT22;6305;48.398;11.762;2022-10-31T01:14:51;7.50;99.90
12481;DHT22;6305;48.398;11.762;2022-10-31T01:17:18;7.40;99.90
12481;DHT22;6305;48.398;11.762;2022-10-31T01:19:45;7.40;99.90
12481;DHT22;6305;48.398;11.762;2022-10-31T01:22:12;7.40;99.90
12481;DHT22;6305;48.398;11.762;2022-10-31T01:24:38;7.50;99.90
12481;DHT22;6305;48.398;11.762;2022-10-31T01:27:05;7.50;99.90
12481;DHT22;6305;48.398;11.762;2022-10-31T01:29:33;7.50;99.90
12481;DHT22;6305;48.398;11.762;2022-10-31T01:32:00;7.50;99.90
12481;DHT22;6305;48.398;11.762;2022-10-31T01:34:27;7.50;99.90
12481;DHT22;6305;48.398;11.762;2022-10-31T01:36:54;7.50;99.90
12481;DHT22;6305;48.398;11.762;2022-10-31T01:39:20;7.50;99.90
12481;DHT22;6305;48.398;11.762;2022-10-31T01:41:49;7.40;99.90
12481;DHT22;6305;48.398;11.762;2022-10-31T01:44:49;7.40;99.90
12481;DHT22;6305;48.398;11.762;2022-10-31T01:47:19;7.30;99.90
12481;DHT22;6305;48.398;11.762;2022-10-31T01:49:50;7.20;99.90
12481;DHT22;6305;48.398;11.762;2022-10-31T01:52:21;7.20;99.90
12481;DHT22;6305;48.398;11.762;2022-10-31T01:54:53;7.20;99.90
12481;DHT22;6305;48.398;11.762;2022-10-31T01:57:23;7.10;99.90
12481;DHT22;6305;48.398;11.762;2022-10-31T01:59:56;7.00;99.90
12481;DHT22;6305;48.398;11.762;2022-10-31T02:02:25;7.00;99.90
12481;DHT22;6305;48.398;11.762;2022-10-31T02:04:53;7.00;99.90
12481;DHT22;6305;48.398;11.762;2022-10-31T02:07:25;7.00;99.90
12481;DHT22;6305;48.398;11.762;2022-10-31T02:09:53;7.00;99.90
12481;DHT22;6305;48.398;11.762;2022-10-31T02:12:21;7.00;99.90
12481;DHT22;6305;48.398;11.762;2022-10-31T02:14:48;7.00;99.90
12481;DHT22;6305;48.398;11.762;2022-10-31T02:17:16;7.00;99.90
12481;DHT22;6305;48.398;11.762;2022-10-31T02:19:51;7.00;99.90
12481;DHT22;6305;48.398;11.762;2022-10-31T02:22:27;7.00;99.90
12481;DHT22;6305;48.398;11.762;2022-10-31T02:25:13;7.00;99.90
12481;DHT22;6305;48.398;11.762;2022-10-31T02:28:13;6.90;99.90
12481;DHT22;6305;48.398;11.762;2022-10-31T02:31:04;6.90;99.90
12481;DHT22;6305;48.398;11.762;2022-10-31T02:33:38;6.80;99.90
12481;DHT22;6305;48.398;11.762;2022-10-31T02:36:13;6.80;99.90
12481;DHT22;6305;48.398;11.762;2022-10-31T02:38:50;6.70;99.90
12481;DHT22;6305;48.398;11.762;2022-10-31T02:41:23;6.60;99.90
12481;DHT22;6305;48.398;11.762;2022-10-31T02:44:00;6.60;99.90
12481;DHT22;6305;48.398;11.762;2022-10-31T02:46:34;6.60;99.90
12481;DHT22;6305;48.398;11.762;2022-10-31T02:49:05;6.50;99.90
12481;DHT22;6305;48.398;11.762;2022-10-31T02:51:34;6.50;99.90
12481;DHT22;6305;48.398;11.762;2022-10-31T02:54:02;6.40;99.90
12481;DHT22;6305;48.398;11.762;2022-10-31T02:56:28;6.40;99.90
12481;DHT22;6305;48.398;11.762;2022-10-31T02:58:57;6.40;99.90
12481;DHT22;6305;48.398;11.762;2022-10-31T03:02:08;6.50;99.90
12481;DHT22;6305;48.398;11.762;2022-10-31T03:04:56;6.50;99.90
12481;DHT22;6305;48.398;11.762;2022-10-31T03:07:30;6.50;99.90
12481;DHT22;6305;48.398;11.762;2022-10-31T03:10:05;6.40;99.90
12481;DHT22;6305;48.398;11.762;2022-10-31T03:12:39;6.40;99.90
12481;DHT22;6305;48.398;11.762;2022-10-31T03:15:14;6.50;99.90
12481;DHT22;6305;48.398;11.762;2022-10-31T03:17:52;6.40;99.90
12481;DHT22;6305;48.398;11.762;2022-10-31T03:20:22;6.40;99.90
12481;DHT22;6305;48.398;11.762;2022-10-31T03:22:51;6.40;99.90
12481;DHT22;6305;48.398;11.762;2022-10-31T03:25:19;6.30;99.90
12481;DHT22;6305;48.398;11.762;2022-10-31T03:27:46;6.30;99.90
12481;DHT22;6305;48.398;11.762;2022-10-31T03:30:14;6.30;99.90
12481;DHT22;6305;48.398;11.762;2022-10-31T03:32:44;6.30;99.90
12481;DHT22;6305;48.398;11.762;2022-10-31T03:35:17;6.20;99.90
12481;DHT22;6305;48.398;11.762;2022-10-31T03:37:46;6.30;99.90
12481;DHT22;6305;48.398;11.762;2022-10-31T03:40:15;6.20;99.90
12481;DHT22;6305;48.398;11.762;2022-10-31T03:42:48;6.30;99.90
12481;DHT22;6305;48.398;11.762;2022-10-31T03:45:23;6.20;99.90
12481;DHT22;6305;48.398;11.762;2022-10-31T03:47:51;6.20;99.90
12481;DHT22;6305;48.398;11.762;2022-10-31T03:50:22;6.20;99.90
12481;DHT22;6305;48.398;11.762;2022-10-31T03:52:55;6.20;99.90
12481;DHT22;6305;48.398;11.762;2022-10-31T03:55:27;6.20;99.90
12481;DHT22;6305;48.398;11.762;2022-10-31T03:57:59;6.20;99.90
12481;DHT22;6305;48.398;11.762;2022-10-31T04:00:26;6.10;99.90
12481;DHT22;6305;48.398;11.762;2022-10-31T04:02:57;6.10;99.90
12481;DHT22;6305;48.398;11.762;2022-10-31T04:05:27;6.10;99.90
12481;DHT22;6305;48.398;11.762;2022-10-31T04:07:56;6.10;99.90
12481;DHT22;6305;48.398;11.762;2022-10-31T04:10:26;6.20;99.90
12481;DHT22;6305;48.398;11.762;2022-10-31T04:12:57;6.30;99.90
12481;DHT22;6305;48.398;11.762;2022-10-31T04:15:28;6.30;99.90
12481;DHT22;6305;48.398;11.762;2022-10-31T04:17:58;6.30;99.90
12481;DHT22;6305;48.398;11.762;2022-10-31T04:20:34;6.40;99.90
12481;DHT22;6305;48.398;11.762;2022-10-31T04:23:02;6.40;99.90
12481;DHT22;6305;48.398;11.762;2022-10-31T04:25:29;6.50;99.90
12481;DHT22;6305;48.398;11.762;2022-10-31T04:27:55;6.50;99.90
12481;DHT22;6305;48.398;11.762;2022-10-31T04:30:22;6.50;99.90
12481;DHT22;6305;48.398;11.762;2022-10-31T04:32:49;6.60;99.90
12481;DHT22;6305;48.398;11.762;2022-10-31T04:35:16;6.60;99.90
12481;DHT22;6305;48.398;11.762;2022-10-31T04:37:44;6.60;99.90
12481;DHT22;6305;48.398;11.762;2022-10-31T04:40:11;6.60;99.90
12481;DHT22;6305;48.398;11.762;2022-10-31T04:42:38;6.50;99.90
12481;DHT22;6305;48.398;11.762;2022-10-31T04:45:05;6.50;99.90
12481;DHT22;6305;48.398;11.762;2022-10-31T04:47:32;6.50;99.90
12481;DHT22;6305;48.398;11.762;2022-10-31T04:50:00;6.50;99.90
12481;DHT22;6305;48.398;11.762;2022-10-31T04:52:27;6.50;99.90
12481;DHT22;6305;48.398;11.762;2022-10-31T04:54:55;6.50;99.90
12481;DHT22;6305;48.398;11.762;2022-10-31T04:57:21;6.50;99.90
12481;DHT22;6305;48.398;11.762;2022-10-31T04:59:48;6.50;99.90
12481;DHT22;6305;48.398;11.762;2022-10-31T05:02:15;6.50;99.90
12481;DHT22;6305;48.398;11.762;2022-10-31T05:04:42;6.50;99.90
12481;DHT22;6305;48.398;11.762;2022-10-31T05:07:08;6.50;99.90
12481;DHT22;6305;48.398;11.762;2022-10-31T05:09:35;6.50;99.90
12481;DHT22;6305;48.398;11.762;2022-10-31T05:12:03;6.50;99.90
12481;DHT22;6305;48.398;11.762;2022-10-31T05:14:30;6.50;99.90
12481;DHT22;6305;48.398;11.762;2022-10-31T05:16:57;6.60;99.90
12481;DHT22;6305;48.398;11.762;2022-10-31T05:19:24;6.50;99.90
12481;DHT22;6305;48.398;11.762;2022-10-31T05:21:51;6.60;99.90
12481;DHT22;6305;48.398;11.762;2022-10-31T05:24:17;6.60;99.90
12481;DHT22;6305;48.398;11.762;2022-10-31T05:26:47;6.60;99.90
12481;DHT22;6305;48.398;11.762;2022-10-31T05:29:15;6.60;99.90
12481;DHT22;6305;48.398;11.762;2022-10-31T05:31:42;6.70;99.90
12481;DHT22;6305;48.398;11.762;2022-10-31T05:34:08;6.70;99.90
12481;DHT22;6305;48.398;11.762;2022-10-31T05:36:35;6.60;99.90
12481;DHT22;6305;48.398;11.762;2022-10-31T05:39:02;6.60;99.90
12481;DHT22;6305;48.398;11.762;2022-10-31T05:41:29;6.60;99.90
12481;DHT22;6305;48.398;11.762;2022-10-31T05:43:56;6.60;99.90
12481;DHT22;6305;48.398;11.762;2022-10-31T05:46:24;6.60;99.90
12481;DHT22;6305;48.398;11.762;2022-10-31T05:48:51;6.50;99.90
12481;DHT22;6305;48.398;11.762;2022-10-31T05:51:17;6.50;99.90
12481;DHT22;6305;48.398;11.762;2022-10-31T05:53:46;6.50;99.90
12481;DHT22;6305;48.398;11.762;2022-10-31T05:56:12;6.50;99.90
12481;DHT22;6305;48.398;11.762;2022-10-31T05:58:39;6.50;99.90
12481;DHT22;6305;48.398;11.762;2022-10-31T06:01:06;6.50;99.90
12481;DHT22;6305;48.398;11.762;2022-10-31T06:03:34;6.50;99.90
12481;DHT22;6305;48.398;11.762;2022-10-31T06:06:01;6.40;99.90
12481;DHT22;6305;48.398;11.762;2022-10-31T06:08:28;6.40;99.90
12481;DHT22;6305;48.398;11.762;2022-10-31T06:10:54;6.50;99.90
12481;DHT22;6305;48.398;11.762;2022-10-31T06:13:21;6.50;99.90
12481;DHT22;6305;48.398;11.762;2022-10-31T06:15:48;6.50;99.90
12481;DHT22;6305;48.398;11.762;2022-10-31T06:18:15;6.40;99.90
12481;DHT22;6305;48.398;11.762;2022-10-31T06:20:43;6.50;99.90
12481;DHT22;6305;48.398;11.762;2022-10-31T06:23:09;6.50;99.90
12481;DHT22;6305;48.398;11.762;2022-10-31T06:25:36;6.50;99.90
12481;DHT22;6305;48.398;11.762;2022-10-31T06:28:03;6.60;99.90
12481;DHT22;6305;48.398;11.762;2022-10-31T06:30:30;6.60;99.90
12481;DHT22;6305;48.398;11.762;2022-10-31T06:33:02;6.70;99.90
12481;DHT22;6305;48.398;11.762;2022-10-31T06:35:29;6.70;99.90
12481;DHT22;6305;48.398;11.762;2022-10-31T06:37:57;6.80;99.90
12481;DHT22;6305;48.398;11.762;2022-10-31T06:40:24;6.90;99.90
12481;DHT22;6305;48.398;11.762;2022-10-31T06:42:56;7.00;99.90
12481;DHT22;6305;48.398;11.762;2022-10-31T06:45:24;7.10;99.90
12481;DHT22;6305;48.398;11.762;2022-10-31T06:47:52;7.20;99.90
12481;DHT22;6305;48.398;11.762;2022-10-31T06:50:19;7.20;99.90
12481;DHT22;6305;48.398;11.762;2022-10-31T06:52:50;7.30;99.90
12481;DHT22;6305;48.398;11.762;2022-10-31T06:55:18;7.50;99.90
12481;DHT22;6305;48.398;11.762;2022-10-31T06:57:51;7.50;99.90
12481;DHT22;6305;48.398;11.762;2022-10-31T07:00:18;7.70;99.90
12481;DHT22;6305;48.398;11.762;2022-10-31T07:02:53;7.80;99.90
12481;DHT22;6305;48.398;11.762;2022-10-31T07:05:20;7.90;99.90
12481;DHT22;6305;48.398;11.762;2022-10-31T07:07:46;8.10;99.90
12481;DHT22;6305;48.398;11.762;2022-10-31T07:10:13;8.40;99.90
12481;DHT22;6305;48.398;11.762;2022-10-31T07:12:42;8.60;99.90
12481;DHT22;6305;48.398;11.762;2022-10-31T07:15:09;8.80;99.90
12481;DHT22;6305;48.398;11.762;2022-10-31T07:17:36;9.00;99.90
12481;DHT22;6305;48.398;11.762;2022-10-31T07:20:03;9.20;99.90
12481;DHT22;6305;48.398;11.762;2022-10-31T07:22:34;9.50;99.90
12481;DHT22;6305;48.398;11.762;2022-10-31T07:25:01;9.60;99.90
12481;DHT22;6305;48.398;11.762;2022-10-31T07:27:28;9.80;99.90
12481;DHT22;6305;48.398;11.762;2022-10-31T07:29:56;10.00;99.90
12481;DHT22;6305;48.398;11.762;2022-10-31T07:32:23;10.10;99.90
12481;DHT22;6305;48.398;11.762;2022-10-31T07:34:49;10.20;99.90
12481;DHT22;6305;48.398;11.762;2022-10-31T07:37:16;10.20;99.90
12481;DHT22;6305;48.398;11.762;2022-10-31T07:39:43;10.30;99.90
12481;DHT22;6305;48.398;11.762;2022-10-31T07:42:10;10.40;99.90
12481;DHT22;6305;48.398;11.762;2022-10-31T07:44:36;10.50;99.90
12481;DHT22;6305;48.398;11.762;2022-10-31T07:47:05;10.90;99.90
12481;DHT22;6305;48.398;11.762;2022-10-31T07:49:31;11.60;99.90
12481;DHT22;6305;48.398;11.762;2022-10-31T07:51:59;13.20;99.90
12481;DHT22;6305;48.398;11.762;2022-10-31T07:54:26;14.90;99.90
12481;DHT22;6305;48.398;11.762;2022-10-31T07:56:52;16.40;99.90
12481;DHT22;6305;48.398;11.762;2022-10-31T07:59:19;17.70;99.90
12481;DHT22;6305;48.398;11.762;2022-10-31T08:01:46;18.80;99.90
12481;DHT22;6305;48.398;11.762;2022-10-31T08:04:14;19.70;99.90
12481;DHT22;6305;48.398;11.762;2022-10-31T08:06:41;20.50;99.90
12481;DHT22;6305;48.398;11.762;2022-10-31T08:09:08;21.30;99.90
12481;DHT22;6305;48.398;11.762;2022-10-31T08:11:34;22.10;99.90
12481;DHT22;6305;48.398;11.762;2022-10-31T08:14:01;22.70;99.90
12481;DHT22;6305;48.398;11.762;2022-10-31T08:16:28;23.00;99.90
12481;DHT22;6305;48.398;11.762;2022-10-31T08:18:55;23.20;99.90
12481;DHT22;6305;48.398;11.762;2022-10-31T08:21:23;23.00;99.90
12481;DHT22;6305;48.398;11.762;2022-10-31T08:23:50;23.20;99.90
12481;DHT22;6305;48.398;11.762;2022-10-31T08:26:16;24.00;99.90
12481;DHT22;6305;48.398;11.762;2022-10-31T08:28:43;24.80;99.90
12481;DHT22;6305;48.398;11.762;2022-10-31T08:31:10;25.50;99.90
12481;DHT22;6305;48.398;11.762;2022-10-31T08:33:37;26.00;99.90
12481;DHT22;6305;48.398;11.762;2022-10-31T08:36:04;26.80;99.30
12481;DHT22;6305;48.398;11.762;2022-10-31T08:38:32;27.50;88.30
12481;DHT22;6305;48.398;11.762;2022-10-31T08:40:59;28.30;74.30
12481;DHT22;6305;48.398;11.762;2022-10-31T08:43:26;29.10;66.70
12481;DHT22;6305;48.398;11.762;2022-10-31T08:45:52;29.60;59.60
12481;DHT22;6305;48.398;11.762;2022-10-31T08:48:20;30.00;55.40
12481;DHT22;6305;48.398;11.762;2022-10-31T08:50:47;30.50;52.50
12481;DHT22;6305;48.398;11.762;2022-10-31T08:53:16;31.10;49.30
12481;DHT22;6305;48.398;11.762;2022-10-31T08:55:46;31.60;47.40
12481;DHT22;6305;48.398;11.762;2022-10-31T08:58:15;32.20;45.40
12481;DHT22;6305;48.398;11.762;2022-10-31T09:00:42;32.40;44.70
12481;DHT22;6305;48.398;11.762;2022-10-31T09:03:11;32.80;43.30
12481;DHT22;6305;48.398;11.762;2022-10-31T09:05:39;33.40;42.60
12481;DHT22;6305;48.398;11.762;2022-10-31T09:08:07;33.90;41.30
12481;DHT22;6305;48.398;11.762;2022-10-31T09:10:35;34.10;40.50
12481;DHT22;6305;48.398;11.762;2022-10-31T09:13:05;34.50;40.10
12481;DHT22;6305;48.398;11.762;2022-10-31T09:15:34;34.60;39.10
12481;DHT22;6305;48.398;11.762;2022-10-31T09:18:00;34.70;38.50
12481;DHT22;6305;48.398;11.762;2022-10-31T09:20:27;34.30;38.40
12481;DHT22;6305;48.398;11.762;2022-10-31T09:22:58;34.00;38.70
12481;DHT22;6305;48.398;11.762;2022-10-31T09:25:25;34.00;39.70
12481;DHT22;6305;48.398;11.762;2022-10-31T09:27:55;34.30;39.30
12481;DHT22;6305;48.398;11.762;2022-10-31T09:30:24;34.50;38.70
12481;DHT22;6305;48.398;11.762;2022-10-31T09:32:55;34.10;38.70
12481;DHT22;6305;48.398;11.762;2022-10-31T09:35:22;34.40;38.90
12481;DHT22;6305;48.398;11.762;2022-10-31T09:37:54;34.90;38.60
12481;DHT22;6305;48.398;11.762;2022-10-31T09:40:21;35.50;38.10
12481;DHT22;6305;48.398;11.762;2022-10-31T09:42:55;36.00;37.20
12481;DHT22;6305;48.398;11.762;2022-10-31T09:45:31;36.20;36.80
12481;DHT22;6305;48.398;11.762;2022-10-31T09:50:51;36.70;36.20
12481;DHT22;6305;48.398;11.762;2022-10-31T09:53:25;37.20;35.70
12481;DHT22;6305;48.398;11.762;2022-10-31T09:55:53;37.40;34.90
12481;DHT22;6305;48.398;11.762;2022-10-31T09:58:25;37.00;35.00
12481;DHT22;6305;48.398;11.762;2022-10-31T10:00:55;36.90;35.70
12481;DHT22;6305;48.398;11.762;2022-10-31T10:03:29;37.30;35.30
12481;DHT22;6305;48.398;11.762;2022-10-31T10:06:04;37.60;34.60
12481;DHT22;6305;48.398;11.762;2022-10-31T10:08:34;37.20;34.70
12481;DHT22;6305;48.398;11.762;2022-10-31T10:11:14;36.70;35.30
12481;DHT22;6305;48.398;11.762;2022-10-31T10:14:06;36.20;36.10
12481;DHT22;6305;48.398;11.762;2022-10-31T10:16:46;35.50;37.00
12481;DHT22;6305;48.398;11.762;2022-10-31T10:19:32;35.00;37.70
12481;DHT22;6305;48.398;11.762;2022-10-31T10:22:06;34.60;38.10
12481;DHT22;6305;48.398;11.762;2022-10-31T10:24:50;34.10;38.60
12481;DHT22;6305;48.398;11.762;2022-10-31T10:27:23;33.40;39.50
12481;DHT22;6305;48.398;11.762;2022-10-31T10:29:58;32.20;40.60
12481;DHT22;6305;48.398;11.762;2022-10-31T10:32:31;31.10;42.30
12481;DHT22;6305;48.398;11.762;2022-10-31T10:35:07;29.70;44.30
12481;DHT22;6305;48.398;11.762;2022-10-31T10:37:40;28.70;46.40
12481;DHT22;6305;48.398;11.762;2022-10-31T10:40:15;27.90;48.10
12481;DHT22;6305;48.398;11.762;2022-10-31T10:42:45;28.00;48.90
12481;DHT22;6305;48.398;11.762;2022-10-31T10:45:34;27.50;48.50
12481;DHT22;6305;48.398;11.762;2022-10-31T10:48:25;26.70;50.40
12481;DHT22;6305;48.398;11.762;2022-10-31T10:50:55;26.20;52.30
12481;DHT22;6305;48.398;11.762;2022-10-31T10:53:38;26.00;53.40
12481;DHT22;6305;48.398;11.762;2022-10-31T10:56:17;25.80;54.00
12481;DHT22;6305;48.398;11.762;2022-10-31T10:58:44;25.80;55.10
12481;DHT22;6305;48.398;11.762;2022-10-31T11:01:12;26.00;55.30
12481;DHT22;6305;48.398;11.762;2022-10-31T11:03:41;26.00;55.30
12481;DHT22;6305;48.398;11.762;2022-10-31T11:06:18;26.10;55.90
12481;DHT22;6305;48.398;11.762;2022-10-31T11:08:48;26.40;55.60
12481;DHT22;6305;48.398;11.762;2022-10-31T11:11:24;26.90;55.30
12481;DHT22;6305;48.398;11.762;2022-10-31T11:13:58;27.30;54.70
12481;DHT22;6305;48.398;11.762;2022-10-31T11:16:32;27.60;53.60
12481;DHT22;6305;48.398;11.762;2022-10-31T11:19:12;27.80;53.00
12481;DHT22;6305;48.398;11.762;2022-10-31T11:21:41;27.90;52.90
12481;DHT22;6305;48.398;11.762;2022-10-31T11:24:14;27.80;52.70
12481;DHT22;6305;48.398;11.762;2022-10-31T11:26:43;27.60;53.00
12481;DHT22;6305;48.398;11.762;2022-10-31T11:29:16;27.50;53.50
12481;DHT22;6305;48.398;11.762;2022-10-31T11:31:44;27.30;54.00
12481;DHT22;6305;48.398;11.762;2022-10-31T11:34:24;26.90;54.30
12481;DHT22;6305;48.398;11.762;2022-10-31T11:36:52;26.60;54.90
12481;DHT22;6305;48.398;11.762;2022-10-31T11:39:22;26.40;55.70
12481;DHT22;6305;48.398;11.762;2022-10-31T11:41:52;26.10;56.10
12481;DHT22;6305;48.398;11.762;2022-10-31T11:44:21;25.80;56.70
12481;DHT22;6305;48.398;11.762;2022-10-31T11:46:50;25.70;57.80
12481;DHT22;6305;48.398;11.762;2022-10-31T11:49:24;25.50;58.40
12481;DHT22;6305;48.398;11.762;2022-10-31T11:51:56;25.30;58.60
12481;DHT22;6305;48.398;11.762;2022-10-31T11:54:26;24.90;59.20
12481;DHT22;6305;48.398;11.762;2022-10-31T11:56:54;24.50;61.00
12481;DHT22;6305;48.398;11.762;2022-10-31T11:59:26;24.40;62.50
12481;DHT22;6305;48.398;11.762;2022-10-31T12:01:55;24.20;63.70
12481;DHT22;6305;48.398;11.762;2022-10-31T12:04:34;24.10;64.70
12481;DHT22;6305;48.398;11.762;2022-10-31T12:07:02;24.10;66.00
12481;DHT22;6305;48.398;11.762;2022-10-31T12:09:30;24.00;66.50
12481;DHT22;6305;48.398;11.762;2022-10-31T12:15:16;23.70;70.10
12481;DHT22;6305;48.398;11.762;2022-10-31T12:17:48;23.80;71.80
12481;DHT22;6305;48.398;11.762;2022-10-31T12:20:24;23.90;73.10
12481;DHT22;6305;48.398;11.762;2022-10-31T12:23:02;24.00;72.60
12481;DHT22;6305;48.398;11.762;2022-10-31T12:25:37;23.90;73.20
12481;DHT22;6305;48.398;11.762;2022-10-31T12:28:19;23.90;74.40
12481;DHT22;6305;48.398;11.762;2022-10-31T12:30:59;24.10;75.80
12481;DHT22;6305;48.398;11.762;2022-10-31T12:33:50;24.40;75.60
12481;DHT22;6305;48.398;11.762;2022-10-31T12:36:32;24.60;73.90
12481;DHT22;6305;48.398;11.762;2022-10-31T12:39:21;24.50;73.70
12481;DHT22;6305;48.398;11.762;2022-10-31T12:41:52;24.30;74.10
12481;DHT22;6305;48.398;11.762;2022-10-31T12:47:38;23.80;77.00
12481;DHT22;6305;48.398;11.762;2022-10-31T12:50:20;23.60;78.90
12481;DHT22;6305;48.398;11.762;2022-10-31T12:52:56;23.30;80.10
12481;DHT22;6305;48.398;11.762;2022-10-31T12:55:48;23.00;81.70
12481;DHT22;6305;48.398;11.762;2022-10-31T12:58:24;22.80;84.80
12481;DHT22;6305;48.398;11.762;2022-10-31T13:01:01;22.50;87.20
12481;DHT22;6305;48.398;11.762;2022-10-31T13:03:35;22.30;90.30
12481;DHT22;6305;48.398;11.762;2022-10-31T13:06:11;22.00;91.70
12481;DHT22;6305;48.398;11.762;2022-10-31T13:08:49;21.60;93.40
12481;DHT22;6305;48.398;11.762;2022-10-31T13:11:20;21.30;95.80
12481;DHT22;6305;48.398;11.762;2022-10-31T13:13:55;20.90;97.60
12481;DHT22;6305;48.398;11.762;2022-10-31T13:16:25;20.80;99.60
12481;DHT22;6305;48.398;11.762;2022-10-31T13:18:57;20.80;99.90
12481;DHT22;6305;48.398;11.762;2022-10-31T13:21:27;20.90;99.90
12481;DHT22;6305;48.398;11.762;2022-10-31T13:24:00;20.90;99.90
12481;DHT22;6305;48.398;11.762;2022-10-31T13:26:35;20.90;99.90
12481;DHT22;6305;48.398;11.762;2022-10-31T13:29:09;21.40;99.90
12481;DHT22;6305;48.398;11.762;2022-10-31T13:31:40;22.40;99.90
12481;DHT22;6305;48.398;11.762;2022-10-31T13:34:11;23.50;97.60
12481;DHT22;6305;48.398;11.762;2022-10-31T13:36:43;24.90;93.10
12481;DHT22;6305;48.398;11.762;2022-10-31T13:39:23;26.20;82.70
12481;DHT22;6305;48.398;11.762;2022-10-31T13:41:55;27.70;71.60
12481;DHT22;6305;48.398;11.762;2022-10-31T13:44:27;28.20;62.50
12481;DHT22;6305;48.398;11.762;2022-10-31T13:46:56;28.10;59.20
12481;DHT22;6305;48.398;11.762;2022-10-31T13:52:14;27.30;59.70
12481;DHT22;6305;48.398;11.762;2022-10-31T13:54:44;27.20;59.80
12481;DHT22;6305;48.398;11.762;2022-10-31T13:57:17;26.80;60.60
12481;DHT22;6305;48.398;11.762;2022-10-31T13:59:49;26.40;61.60
12481;DHT22;6305;48.398;11.762;2022-10-31T14:02:18;25.80;63.00
12481;DHT22;6305;48.398;11.762;2022-10-31T14:04:49;25.20;65.20
12481;DHT22;6305;48.398;11.762;2022-10-31T14:07:18;24.30;68.20
12481;DHT22;6305;48.398;11.762;2022-10-31T14:09:54;23.60;72.40
12481;DHT22;6305;48.398;11.762;2022-10-31T14:12:26;22.80;77.80
12481;DHT22;6305;48.398;11.762;2022-10-31T14:15:19;22.10;84.30
12481;DHT22;6305;48.398;11.762;2022-10-31T14:17:49;21.50;91.30
12481;DHT22;6305;48.398;11.762;2022-10-31T14:20:32;20.90;94.40
12481;DHT22;6305;48.398;11.762;2022-10-31T14:23:09;20.50;97.30
12481;DHT22;6305;48.398;11.762;2022-10-31T14:25:38;20.10;99.60
12481;DHT22;6305;48.398;11.762;2022-10-31T14:28:19;19.70;99.90
12481;DHT22;6305;48.398;11.762;2022-10-31T14:30:52;19.50;99.90
12481;DHT22;6305;48.398;11.762;2022-10-31T14:33:19;19.30;99.90
12481;DHT22;6305;48.398;11.762;2022-10-31T14:35:56;19.20;99.90
12481;DHT22;6305;48.398;11.762;2022-10-31T14:38:32;19.20;99.90
12481;DHT22;6305;48.398;11.762;2022-10-31T14:41:21;19.30;99.90
12481;DHT22;6305;48.398;11.762;2022-10-31T14:44:09;19.10;99.90
12481;DHT22;6305;48.398;11.762;2022-10-31T14:46:46;18.80;99.90
12481;DHT22;6305;48.398;11.762;2022-10-31T14:49:27;18.60;99.90
12481;DHT22;6305;48.398;11.762;2022-10-31T14:51:58;18.40;99.90
12481;DHT22;6305;48.398;11.762;2022-10-31T14:54:27;18.30;99.90
12481;DHT22;6305;48.398;11.762;2022-10-31T14:56:59;18.00;99.90
12481;DHT22;6305;48.398;11.762;2022-10-31T14:59:28;17.90;99.90
12481;DHT22;6305;48.398;11.762;2022-10-31T15:01:58;17.70;99.90
12481;DHT22;6305;48.398;11.762;2022-10-31T15:04:27;17.50;99.90
12481;DHT22;6305;48.398;11.762;2022-10-31T15:07:11;17.30;99.90
12481;DHT22;6305;48.398;11.762;2022-10-31T15:09:40;17.10;99.90
12481;DHT22;6305;48.398;11.762;2022-10-31T15:12:25;17.00;99.90
12481;DHT22;6305;48.398;11.762;2022-10-31T15:14:52;16.70;99.90
12481;DHT22;6305;48.398;11.762;2022-10-31T15:17:19;16.50;99.90
12481;DHT22;6305;48.398;11.762;2022-10-31T15:19:47;16.30;99.90
12481;DHT22;6305;48.398;11.762;2022-10-31T15:22:15;16.20;99.90
12481;DHT22;6305;48.398;11.762;2022-10-31T15:24:43;16.10;99.90
12481;DHT22;6305;48.398;11.762;2022-10-31T15:27:12;16.00;99.90
12481;DHT22;6305;48.398;11.762;2022-10-31T15:29:49;16.00;99.90
12481;DHT22;6305;48.398;11.762;2022-10-31T15:32:19;15.80;99.90
12481;DHT22;6305;48.398;11.762;2022-10-31T15:34:46;15.70;99.90
12481;DHT22;6305;48.398;11.762;2022-10-31T15:37:14;15.60;99.90
12481;DHT22;6305;48.398;11.762;2022-10-31T15:39:42;15.60;99.90
12481;DHT22;6305;48.398;11.762;2022-10-31T15:42:21;15.50;99.90
12481;DHT22;6305;48.398;11.762;2022-10-31T15:44:52;15.40;99.90
12481;DHT22;6305;48.398;11.762;2022-10-31T15:47:22;15.30;99.90
12481;DHT22;6305;48.398;11.762;2022-10-31T15:49:51;15.20;99.90
12481;DHT22;6305;48.398;11.762;2022-10-31T15:52:26;15.10;99.90
12481;DHT22;6305;48.398;11.762;2022-10-31T15:54:57;15.10;99.90
12481;DHT22;6305;48.398;11.762;2022-10-31T15:57:25;14.90;99.90
12481;DHT22;6305;48.398;11.762;2022-10-31T15:59:54;14.80;99.90
12481;DHT22;6305;48.398;11.762;2022-10-31T16:02:23;14.70;99.90
12481;DHT22;6305;48.398;11.762;2022-10-31T16:04:53;14.50;99.90
12481;DHT22;6305;48.398;11.762;2022-10-31T16:07:21;14.40;99.90
12481;DHT22;6305;48.398;11.762;2022-10-31T16:09:56;14.20;99.90
12481;DHT22;6305;48.398;11.762;2022-10-31T16:12:24;14.00;99.90